AYNZ/LAE METAR and TAF weather

Enter ICAO airport designator
Station Type Date Time Source
AYNZ METAR 2021/01/22 06:00 UTC NOAA

AYNZ 220600Z 10010KT 9999 SCT050 32/23 Q1003=


Station Type Date Time Source
AYNZ Decoded METAR 2021/01/22 06:00 UTC NOAA

Station name not available
Jan 22, 2021 - 01:00 AM EST / 2021.01.22 0600 UTC
Wind: from the E (100 degrees) at 12 MPH (10 KT):0
Visibility: greater than 7 mile(s):0
Sky conditions: partly cloudy
Temperature: 89 F (32 C)
Heat index: 96.8 F (36.0 C):1
Dew Point: 73 F (23 C)
Relative Humidity: 59%
Pressure (altimeter): 29.62 in. Hg (1003 hPa)
ob: AYNZ 220600Z 10010KT 9999 SCT050 32/23 Q1003=
cycle: 6

Station Type Date Time Source
AYNZ TAF 2015/08/19 08:15 UTC NOAA

TAF AYNZ 190550Z 1908/1920 09015KT 9999 SCT020 SCT120
FM191400 VRB03KT 9999 BKN040 Q 1011 1014 1013 1010

Example: see airport list